America, Illinois
Current Conditions -  °F | °C
As of 12:55 PM on Tuesday 27 Jan 2015 (Local Time) from KCIR Reporting Station
Overcast Overcast  
Wind Chill: 43°   Ceiling: 3300
Heat Index: 46°   Visibility: 10mi
Dew Point: 33°   Wind: 6mph
Humidity: 62%   Direction: 360°N
Pressure: 30.14"   Gusts: NA
Location:  37.1575°N, 89.1781°W
Report Text: KCIR 271855Z AUTO 36005KT 10SM OVC033 08/01 A3014 RMK AO2 T00760007
Loading
Personal Weather Stations






























Interactive Weather Map New forecast layout! Learn more

10-Day Weather Forecast

Advertisements
Track Severe Weather on mobile